sensor_id;sensor_type;location;lat;lon;timestamp;P1;durP1;ratioP1;P2;durP2;ratioP2
69912;SDS011;57198;52.082;5.108;2022-12-18T00:01:06;45.27;;;16.97;;
69912;SDS011;57198;52.082;5.108;2022-12-18T00:03:40;38.10;;;17.60;;
69912;SDS011;57198;52.082;5.108;2022-12-18T00:06:08;50.10;;;21.33;;
69912;SDS011;57198;52.082;5.108;2022-12-18T00:08:35;59.25;;;22.88;;
69912;SDS011;57198;52.082;5.108;2022-12-18T00:11:07;49.40;;;21.42;;
69912;SDS011;57198;52.082;5.108;2022-12-18T00:13:35;43.20;;;20.13;;
69912;SDS011;57198;52.082;5.108;2022-12-18T00:16:07;51.58;;;21.75;;
69912;SDS011;57198;52.082;5.108;2022-12-18T00:18:34;53.28;;;22.33;;
69912;SDS011;57198;52.082;5.108;2022-12-18T00:21:03;42.97;;;17.70;;
69912;SDS011;57198;52.082;5.108;2022-12-18T00:23:31;46.05;;;20.02;;
69912;SDS011;57198;52.082;5.108;2022-12-18T00:25:59;40.93;;;19.27;;
69912;SDS011;57198;52.082;5.108;2022-12-18T00:28:26;52.10;;;19.25;;
69912;SDS011;57198;52.082;5.108;2022-12-18T00:31:03;48.33;;;20.90;;
69912;SDS011;57198;52.082;5.108;2022-12-18T00:33:31;56.08;;;24.13;;
69912;SDS011;57198;52.082;5.108;2022-12-18T00:36:05;49.65;;;23.20;;
69912;SDS011;57198;52.082;5.108;2022-12-18T00:38:33;54.73;;;23.57;;
69912;SDS011;57198;52.082;5.108;2022-12-18T00:41:01;55.28;;;23.33;;
69912;SDS011;57198;52.082;5.108;2022-12-18T00:43:29;46.00;;;19.02;;
69912;SDS011;57198;52.082;5.108;2022-12-18T00:45:56;52.05;;;21.55;;
69912;SDS011;57198;52.082;5.108;2022-12-18T00:48:24;38.58;;;18.25;;
69912;SDS011;57198;52.082;5.108;2022-12-18T00:50:51;46.07;;;19.30;;
69912;SDS011;57198;52.082;5.108;2022-12-18T00:53:19;37.95;;;16.52;;
69912;SDS011;57198;52.082;5.108;2022-12-18T00:55:46;42.63;;;21.00;;
69912;SDS011;57198;52.082;5.108;2022-12-18T00:58:14;39.17;;;18.25;;
69912;SDS011;57198;52.082;5.108;2022-12-18T01:00:42;54.72;;;22.88;;
69912;SDS011;57198;52.082;5.108;2022-12-18T01:03:13;58.37;;;24.90;;
69912;SDS011;57198;52.082;5.108;2022-12-18T01:05:42;51.95;;;22.98;;
69912;SDS011;57198;52.082;5.108;2022-12-18T01:08:10;49.92;;;23.27;;
69912;SDS011;57198;52.082;5.108;2022-12-18T01:10:40;56.10;;;23.10;;
69912;SDS011;57198;52.082;5.108;2022-12-18T01:13:07;60.85;;;22.65;;
69912;SDS011;57198;52.082;5.108;2022-12-18T01:15:35;83.50;;;23.40;;
69912;SDS011;57198;52.082;5.108;2022-12-18T01:18:02;50.30;;;20.08;;
69912;SDS011;57198;52.082;5.108;2022-12-18T01:20:29;56.28;;;20.45;;
69912;SDS011;57198;52.082;5.108;2022-12-18T01:22:57;42.97;;;18.63;;
69912;SDS011;57198;52.082;5.108;2022-12-18T01:25:25;56.10;;;21.83;;
69912;SDS011;57198;52.082;5.108;2022-12-18T01:27:53;57.73;;;24.33;;
69912;SDS011;57198;52.082;5.108;2022-12-18T01:30:20;55.45;;;22.65;;
69912;SDS011;57198;52.082;5.108;2022-12-18T01:32:47;57.03;;;23.33;;
69912;SDS011;57198;52.082;5.108;2022-12-18T01:35:15;49.08;;;22.00;;
69912;SDS011;57198;52.082;5.108;2022-12-18T01:37:43;50.08;;;20.88;;
69912;SDS011;57198;52.082;5.108;2022-12-18T01:40:10;51.33;;;22.27;;
69912;SDS011;57198;52.082;5.108;2022-12-18T01:42:38;43.22;;;19.92;;
69912;SDS011;57198;52.082;5.108;2022-12-18T01:50:20;44.33;;;19.88;;
69912;SDS011;57198;52.082;5.108;2022-12-18T01:52:55;56.47;;;22.57;;
69912;SDS011;57198;52.082;5.108;2022-12-18T01:55:24;54.47;;;21.63;;
69912;SDS011;57198;52.082;5.108;2022-12-18T01:57:53;53.70;;;22.13;;
69912;SDS011;57198;52.082;5.108;2022-12-18T02:00:21;47.17;;;19.60;;
69912;SDS011;57198;52.082;5.108;2022-12-18T02:02:50;49.95;;;20.67;;
69912;SDS011;57198;52.082;5.108;2022-12-18T02:05:19;56.83;;;22.73;;
69912;SDS011;57198;52.082;5.108;2022-12-18T02:07:55;55.45;;;21.85;;
69912;SDS011;57198;52.082;5.108;2022-12-18T02:15:19;46.10;;;21.00;;
69912;SDS011;57198;52.082;5.108;2022-12-18T02:17:54;39.73;;;18.37;;
69912;SDS011;57198;52.082;5.108;2022-12-18T02:28:53;45.38;;;21.30;;
69912;SDS011;57198;52.082;5.108;2022-12-18T02:31:23;57.03;;;25.53;;
69912;SDS011;57198;52.082;5.108;2022-12-18T02:33:53;58.85;;;24.83;;
69912;SDS011;57198;52.082;5.108;2022-12-18T02:36:21;52.35;;;24.35;;
69912;SDS011;57198;52.082;5.108;2022-12-18T02:38:51;54.42;;;24.20;;
69912;SDS011;57198;52.082;5.108;2022-12-18T02:41:20;56.40;;;25.63;;
69912;SDS011;57198;52.082;5.108;2022-12-18T02:43:53;59.60;;;26.13;;
69912;SDS011;57198;52.082;5.108;2022-12-18T02:46:26;59.25;;;26.30;;
69912;SDS011;57198;52.082;5.108;2022-12-18T02:49:01;60.03;;;24.77;;
69912;SDS011;57198;52.082;5.108;2022-12-18T02:52:07;53.78;;;25.58;;
69912;SDS011;57198;52.082;5.108;2022-12-18T02:56:53;56.37;;;27.20;;
69912;SDS011;57198;52.082;5.108;2022-12-18T02:59:25;53.10;;;25.50;;
69912;SDS011;57198;52.082;5.108;2022-12-18T03:01:58;52.63;;;24.25;;
69912;SDS011;57198;52.082;5.108;2022-12-18T03:04:30;60.63;;;26.30;;
69912;SDS011;57198;52.082;5.108;2022-12-18T03:07:03;54.55;;;24.83;;
69912;SDS011;57198;52.082;5.108;2022-12-18T03:09:34;54.40;;;21.77;;
69912;SDS011;57198;52.082;5.108;2022-12-18T03:12:08;50.30;;;25.13;;
69912;SDS011;57198;52.082;5.108;2022-12-18T03:14:51;51.55;;;24.25;;
69912;SDS011;57198;52.082;5.108;2022-12-18T03:17:20;46.75;;;22.60;;
69912;SDS011;57198;52.082;5.108;2022-12-18T03:19:50;50.72;;;23.25;;
69912;SDS011;57198;52.082;5.108;2022-12-18T03:22:18;51.10;;;23.83;;
69912;SDS011;57198;52.082;5.108;2022-12-18T03:24:50;49.88;;;23.60;;
69912;SDS011;57198;52.082;5.108;2022-12-18T03:27:19;50.53;;;23.42;;
69912;SDS011;57198;52.082;5.108;2022-12-18T03:29:52;47.38;;;22.52;;
69912;SDS011;57198;52.082;5.108;2022-12-18T03:32:25;43.67;;;22.67;;
69912;SDS011;57198;52.082;5.108;2022-12-18T03:34:55;47.37;;;22.80;;
69912;SDS011;57198;52.082;5.108;2022-12-18T03:37:31;52.85;;;22.88;;
69912;SDS011;57198;52.082;5.108;2022-12-18T03:39:59;42.60;;;20.98;;
69912;SDS011;57198;52.082;5.108;2022-12-18T03:42:29;47.92;;;23.98;;
69912;SDS011;57198;52.082;5.108;2022-12-18T03:45:48;44.40;;;22.02;;
69912;SDS011;57198;52.082;5.108;2022-12-18T03:52:53;45.13;;;22.48;;
69912;SDS011;57198;52.082;5.108;2022-12-18T03:55:23;52.72;;;22.67;;
69912;SDS011;57198;52.082;5.108;2022-12-18T03:57:57;46.72;;;23.63;;
69912;SDS011;57198;52.082;5.108;2022-12-18T04:00:30;46.23;;;23.30;;
69912;SDS011;57198;52.082;5.108;2022-12-18T04:03:05;45.20;;;21.88;;
69912;SDS011;57198;52.082;5.108;2022-12-18T04:05:39;46.97;;;22.88;;
69912;SDS011;57198;52.082;5.108;2022-12-18T04:08:08;44.22;;;22.98;;
69912;SDS011;57198;52.082;5.108;2022-12-18T04:10:40;44.72;;;21.85;;
69912;SDS011;57198;52.082;5.108;2022-12-18T04:13:08;46.87;;;23.77;;
69912;SDS011;57198;52.082;5.108;2022-12-18T04:15:35;50.35;;;22.85;;
69912;SDS011;57198;52.082;5.108;2022-12-18T04:18:07;49.58;;;22.95;;
69912;SDS011;57198;52.082;5.108;2022-12-18T04:20:38;48.83;;;24.83;;
69912;SDS011;57198;52.082;5.108;2022-12-18T04:23:07;37.78;;;22.63;;
69912;SDS011;57198;52.082;5.108;2022-12-18T04:25:36;47.07;;;22.60;;
69912;SDS011;57198;52.082;5.108;2022-12-18T04:28:07;42.05;;;20.85;;
69912;SDS011;57198;52.082;5.108;2022-12-18T04:30:36;39.55;;;21.58;;
69912;SDS011;57198;52.082;5.108;2022-12-18T04:33:08;37.05;;;21.77;;
69912;SDS011;57198;52.082;5.108;2022-12-18T04:35:36;41.15;;;20.90;;
69912;SDS011;57198;52.082;5.108;2022-12-18T04:38:05;40.27;;;21.93;;
69912;SDS011;57198;52.082;5.108;2022-12-18T04:40:33;35.00;;;20.02;;
69912;SDS011;57198;52.082;5.108;2022-12-18T04:43:02;40.67;;;22.23;;
69912;SDS011;57198;52.082;5.108;2022-12-18T04:45:30;41.97;;;21.83;;
69912;SDS011;57198;52.082;5.108;2022-12-18T04:47:58;38.05;;;21.27;;
69912;SDS011;57198;52.082;5.108;2022-12-18T04:50:25;33.67;;;18.90;;
69912;SDS011;57198;52.082;5.108;2022-12-18T04:52:53;29.25;;;16.30;;
69912;SDS011;57198;52.082;5.108;2022-12-18T04:55:24;44.60;;;20.08;;
69912;SDS011;57198;52.082;5.108;2022-12-18T04:57:52;39.78;;;20.42;;
69912;SDS011;57198;52.082;5.108;2022-12-18T05:00:19;30.52;;;18.80;;
69912;SDS011;57198;52.082;5.108;2022-12-18T05:02:46;30.87;;;16.10;;
69912;SDS011;57198;52.082;5.108;2022-12-18T05:05:14;38.45;;;19.02;;
69912;SDS011;57198;52.082;5.108;2022-12-18T05:07:41;30.13;;;16.15;;
69912;SDS011;57198;52.082;5.108;2022-12-18T05:10:09;26.40;;;15.85;;
69912;SDS011;57198;52.082;5.108;2022-12-18T05:12:36;30.95;;;17.30;;
69912;SDS011;57198;52.082;5.108;2022-12-18T05:15:26;34.87;;;17.33;;
69912;SDS011;57198;52.082;5.108;2022-12-18T05:17:54;29.33;;;16.20;;
69912;SDS011;57198;52.082;5.108;2022-12-18T05:20:21;29.67;;;17.67;;
69912;SDS011;57198;52.082;5.108;2022-12-18T05:22:48;31.90;;;17.95;;
69912;SDS011;57198;52.082;5.108;2022-12-18T05:25:15;29.10;;;16.75;;
69912;SDS011;57198;52.082;5.108;2022-12-18T05:27:43;33.63;;;17.87;;
69912;SDS011;57198;52.082;5.108;2022-12-18T05:30:11;26.05;;;17.77;;
69912;SDS011;57198;52.082;5.108;2022-12-18T05:32:39;33.55;;;18.42;;
69912;SDS011;57198;52.082;5.108;2022-12-18T05:35:07;29.80;;;18.45;;
69912;SDS011;57198;52.082;5.108;2022-12-18T05:37:34;26.98;;;16.27;;
69912;SDS011;57198;52.082;5.108;2022-12-18T05:40:08;31.97;;;16.67;;
69912;SDS011;57198;52.082;5.108;2022-12-18T05:42:35;28.10;;;16.80;;
69912;SDS011;57198;52.082;5.108;2022-12-18T05:45:03;29.38;;;16.45;;
69912;SDS011;57198;52.082;5.108;2022-12-18T05:47:31;26.50;;;16.90;;
69912;SDS011;57198;52.082;5.108;2022-12-18T05:49:58;24.55;;;15.38;;
69912;SDS011;57198;52.082;5.108;2022-12-18T05:52:25;27.73;;;18.13;;
69912;SDS011;57198;52.082;5.108;2022-12-18T05:54:53;25.50;;;16.00;;
69912;SDS011;57198;52.082;5.108;2022-12-18T05:57:20;26.13;;;16.35;;
69912;SDS011;57198;52.082;5.108;2022-12-18T05:59:47;27.27;;;15.27;;
69912;SDS011;57198;52.082;5.108;2022-12-18T06:02:15;27.05;;;15.38;;
69912;SDS011;57198;52.082;5.108;2022-12-18T06:04:42;26.43;;;15.63;;
69912;SDS011;57198;52.082;5.108;2022-12-18T06:07:10;27.60;;;17.00;;
69912;SDS011;57198;52.082;5.108;2022-12-18T06:09:37;26.25;;;15.55;;
69912;SDS011;57198;52.082;5.108;2022-12-18T06:12:05;27.63;;;15.73;;
69912;SDS011;57198;52.082;5.108;2022-12-18T06:14:32;26.38;;;15.15;;
69912;SDS011;57198;52.082;5.108;2022-12-18T06:16:59;24.07;;;15.40;;
69912;SDS011;57198;52.082;5.108;2022-12-18T06:19:26;24.20;;;15.43;;
69912;SDS011;57198;52.082;5.108;2022-12-18T06:21:54;25.05;;;15.20;;
69912;SDS011;57198;52.082;5.108;2022-12-18T06:24:24;21.17;;;13.95;;
69912;SDS011;57198;52.082;5.108;2022-12-18T06:26:51;25.15;;;16.08;;
69912;SDS011;57198;52.082;5.108;2022-12-18T06:29:18;23.63;;;15.30;;
69912;SDS011;57198;52.082;5.108;2022-12-18T06:31:46;22.77;;;14.80;;
69912;SDS011;57198;52.082;5.108;2022-12-18T06:34:13;23.38;;;14.77;;
69912;SDS011;57198;52.082;5.108;2022-12-18T06:36:40;23.90;;;13.90;;
69912;SDS011;57198;52.082;5.108;2022-12-18T06:39:08;23.50;;;14.50;;
69912;SDS011;57198;52.082;5.108;2022-12-18T06:41:35;23.53;;;16.43;;
69912;SDS011;57198;52.082;5.108;2022-12-18T06:44:02;20.92;;;15.05;;
69912;SDS011;57198;52.082;5.108;2022-12-18T06:46:30;22.85;;;14.93;;
69912;SDS011;57198;52.082;5.108;2022-12-18T06:48:58;19.60;;;14.48;;
69912;SDS011;57198;52.082;5.108;2022-12-18T06:51:25;24.33;;;13.52;;
69912;SDS011;57198;52.082;5.108;2022-12-18T06:53:53;21.90;;;13.60;;
69912;SDS011;57198;52.082;5.108;2022-12-18T06:56:20;23.58;;;14.27;;
69912;SDS011;57198;52.082;5.108;2022-12-18T06:58:47;19.98;;;14.57;;
69912;SDS011;57198;52.082;5.108;2022-12-18T07:01:16;23.92;;;14.73;;
69912;SDS011;57198;52.082;5.108;2022-12-18T07:03:43;17.65;;;13.93;;
69912;SDS011;57198;52.082;5.108;2022-12-18T07:06:15;23.53;;;13.83;;
69912;SDS011;57198;52.082;5.108;2022-12-18T07:08:43;20.38;;;13.38;;
69912;SDS011;57198;52.082;5.108;2022-12-18T07:11:11;23.65;;;14.07;;
69912;SDS011;57198;52.082;5.108;2022-12-18T07:13:38;23.80;;;14.30;;
69912;SDS011;57198;52.082;5.108;2022-12-18T07:16:13;15.25;;;9.57;;
69912;SDS011;57198;52.082;5.108;2022-12-18T07:18:49;18.13;;;12.80;;
69912;SDS011;57198;52.082;5.108;2022-12-18T07:21:17;20.08;;;12.93;;
69912;SDS011;57198;52.082;5.108;2022-12-18T07:23:45;24.58;;;14.27;;
69912;SDS011;57198;52.082;5.108;2022-12-18T07:26:15;15.13;;;10.40;;
69912;SDS011;57198;52.082;5.108;2022-12-18T07:28:42;19.95;;;13.13;;
69912;SDS011;57198;52.082;5.108;2022-12-18T07:31:11;18.00;;;13.37;;
69912;SDS011;57198;52.082;5.108;2022-12-18T07:33:39;16.63;;;11.75;;
69912;SDS011;57198;52.082;5.108;2022-12-18T07:36:07;19.58;;;15.05;;
69912;SDS011;57198;52.082;5.108;2022-12-18T07:38:35;19.80;;;12.95;;
69912;SDS011;57198;52.082;5.108;2022-12-18T07:41:03;20.08;;;13.07;;
69912;SDS011;57198;52.082;5.108;2022-12-18T07:43:32;19.87;;;13.17;;
69912;SDS011;57198;52.082;5.108;2022-12-18T07:45:59;19.90;;;13.15;;
69912;SDS011;57198;52.082;5.108;2022-12-18T07:48:27;21.73;;;14.63;;
69912;SDS011;57198;52.082;5.108;2022-12-18T07:50:58;18.55;;;12.63;;
69912;SDS011;57198;52.082;5.108;2022-12-18T07:53:25;18.42;;;13.15;;
69912;SDS011;57198;52.082;5.108;2022-12-18T07:55:59;22.03;;;14.23;;
69912;SDS011;57198;52.082;5.108;2022-12-18T07:58:47;21.17;;;14.77;;
69912;SDS011;57198;52.082;5.108;2022-12-18T08:01:14;22.42;;;14.57;;
69912;SDS011;57198;52.082;5.108;2022-12-18T08:03:42;20.48;;;12.80;;
69912;SDS011;57198;52.082;5.108;2022-12-18T08:06:09;22.67;;;14.32;;
69912;SDS011;57198;52.082;5.108;2022-12-18T08:08:37;21.40;;;13.97;;
69912;SDS011;57198;52.082;5.108;2022-12-18T08:11:04;20.48;;;15.02;;
69912;SDS011;57198;52.082;5.108;2022-12-18T08:13:31;19.20;;;14.02;;
69912;SDS011;57198;52.082;5.108;2022-12-18T08:16:00;21.50;;;14.43;;
69912;SDS011;57198;52.082;5.108;2022-12-18T08:18:27;16.15;;;12.55;;
69912;SDS011;57198;52.082;5.108;2022-12-18T08:20:55;18.20;;;12.27;;
69912;SDS011;57198;52.082;5.108;2022-12-18T08:23:22;18.73;;;12.75;;
69912;SDS011;57198;52.082;5.108;2022-12-18T08:25:54;17.52;;;13.38;;
69912;SDS011;57198;52.082;5.108;2022-12-18T08:28:21;15.52;;;12.98;;
69912;SDS011;57198;52.082;5.108;2022-12-18T08:30:51;20.02;;;13.50;;
69912;SDS011;57198;52.082;5.108;2022-12-18T08:33:18;13.07;;;10.67;;
69912;SDS011;57198;52.082;5.108;2022-12-18T08:35:45;16.60;;;12.43;;
69912;SDS011;57198;52.082;5.108;2022-12-18T08:38:13;20.30;;;11.95;;
69912;SDS011;57198;52.082;5.108;2022-12-18T08:40:40;18.83;;;13.85;;
69912;SDS011;57198;52.082;5.108;2022-12-18T08:43:09;17.88;;;12.18;;
69912;SDS011;57198;52.082;5.108;2022-12-18T08:45:55;18.83;;;13.87;;
69912;SDS011;57198;52.082;5.108;2022-12-18T08:48:22;18.98;;;12.65;;
69912;SDS011;57198;52.082;5.108;2022-12-18T08:50:53;18.75;;;13.50;;
69912;SDS011;57198;52.082;5.108;2022-12-18T08:53:20;16.98;;;13.25;;
69912;SDS011;57198;52.082;5.108;2022-12-18T08:55:48;18.58;;;13.10;;
69912;SDS011;57198;52.082;5.108;2022-12-18T08:58:15;18.23;;;13.03;;
69912;SDS011;57198;52.082;5.108;2022-12-18T09:00:43;19.02;;;14.30;;
69912;SDS011;57198;52.082;5.108;2022-12-18T09:03:14;21.63;;;15.95;;
69912;SDS011;57198;52.082;5.108;2022-12-18T09:05:41;19.73;;;13.18;;
69912;SDS011;57198;52.082;5.108;2022-12-18T09:08:09;15.13;;;11.15;;
69912;SDS011;57198;52.082;5.108;2022-12-18T09:10:46;14.57;;;11.50;;
69912;SDS011;57198;52.082;5.108;2022-12-18T09:13:14;12.13;;;10.20;;
69912;SDS011;57198;52.082;5.108;2022-12-18T09:15:42;15.73;;;11.25;;
69912;SDS011;57198;52.082;5.108;2022-12-18T09:18:11;13.75;;;10.68;;
69912;SDS011;57198;52.082;5.108;2022-12-18T09:20:39;16.48;;;10.13;;
69912;SDS011;57198;52.082;5.108;2022-12-18T09:23:07;19.10;;;11.80;;
69912;SDS011;57198;52.082;5.108;2022-12-18T09:25:35;16.27;;;11.98;;
69912;SDS011;57198;52.082;5.108;2022-12-18T09:28:03;16.65;;;12.27;;
69912;SDS011;57198;52.082;5.108;2022-12-18T09:30:31;18.02;;;12.07;;
69912;SDS011;57198;52.082;5.108;2022-12-18T09:33:02;16.20;;;12.07;;
69912;SDS011;57198;52.082;5.108;2022-12-18T09:35:32;18.90;;;12.83;;
69912;SDS011;57198;52.082;5.108;2022-12-18T09:37:59;17.25;;;12.15;;
69912;SDS011;57198;52.082;5.108;2022-12-18T09:40:28;14.98;;;12.18;;
69912;SDS011;57198;52.082;5.108;2022-12-18T09:43:00;17.27;;;11.10;;
69912;SDS011;57198;52.082;5.108;2022-12-18T09:45:31;15.93;;;11.00;;
69912;SDS011;57198;52.082;5.108;2022-12-18T09:48:05;17.63;;;11.80;;
69912;SDS011;57198;52.082;5.108;2022-12-18T09:50:38;11.60;;;10.05;;
69912;SDS011;57198;52.082;5.108;2022-12-18T09:53:06;11.05;;;9.43;;
69912;SDS011;57198;52.082;5.108;2022-12-18T09:55:38;15.45;;;10.95;;
69912;SDS011;57198;52.082;5.108;2022-12-18T10:00:34;16.03;;;11.73;;
69912;SDS011;57198;52.082;5.108;2022-12-18T10:03:11;17.05;;;12.25;;
69912;SDS011;57198;52.082;5.108;2022-12-18T10:05:41;17.63;;;11.75;;
69912;SDS011;57198;52.082;5.108;2022-12-18T10:08:17;16.52;;;10.77;;
69912;SDS011;57198;52.082;5.108;2022-12-18T10:10:57;15.77;;;11.48;;
69912;SDS011;57198;52.082;5.108;2022-12-18T10:13:30;16.73;;;11.20;;
69912;SDS011;57198;52.082;5.108;2022-12-18T10:21:27;14.85;;;10.75;;
69912;SDS011;57198;52.082;5.108;2022-12-18T10:24:00;18.10;;;13.02;;
69912;SDS011;57198;52.082;5.108;2022-12-18T10:26:30;17.40;;;11.77;;
69912;SDS011;57198;52.082;5.108;2022-12-18T10:28:58;11.50;;;8.98;;
69912;SDS011;57198;52.082;5.108;2022-12-18T10:31:31;17.85;;;12.57;;
69912;SDS011;57198;52.082;5.108;2022-12-18T10:33:58;19.08;;;11.77;;
69912;SDS011;57198;52.082;5.108;2022-12-18T10:36:25;17.13;;;11.77;;
69912;SDS011;57198;52.082;5.108;2022-12-18T10:38:53;19.00;;;11.00;;
69912;SDS011;57198;52.082;5.108;2022-12-18T10:44:26;19.10;;;12.23;;
69912;SDS011;57198;52.082;5.108;2022-12-18T10:46:46;18.52;;;12.45;;
69912;SDS011;57198;52.082;5.108;2022-12-18T10:49:19;16.45;;;11.02;;
69912;SDS011;57198;52.082;5.108;2022-12-18T10:51:47;15.60;;;11.20;;
69912;SDS011;57198;52.082;5.108;2022-12-18T10:54:15;17.83;;;12.27;;
69912;SDS011;57198;52.082;5.108;2022-12-18T10:56:43;15.70;;;11.35;;
69912;SDS011;57198;52.082;5.108;2022-12-18T10:59:12;17.20;;;11.38;;
69912;SDS011;57198;52.082;5.108;2022-12-18T11:04:18;17.50;;;12.10;;
69912;SDS011;57198;52.082;5.108;2022-12-18T11:06:56;17.67;;;12.63;;
69912;SDS011;57198;52.082;5.108;2022-12-18T11:09:28;18.48;;;12.30;;
69912;SDS011;57198;52.082;5.108;2022-12-18T11:11:57;18.42;;;12.70;;
69912;SDS011;57198;52.082;5.108;2022-12-18T11:14:27;14.40;;;11.20;;
69912;SDS011;57198;52.082;5.108;2022-12-18T11:16:54;17.37;;;10.97;;
69912;SDS011;57198;52.082;5.108;2022-12-18T11:19:42;17.25;;;12.70;;
69912;SDS011;57198;52.082;5.108;2022-12-18T11:22:20;16.83;;;11.35;;
69912;SDS011;57198;52.082;5.108;2022-12-18T11:27:54;14.65;;;10.05;;
69912;SDS011;57198;52.082;5.108;2022-12-18T11:30:23;15.50;;;10.50;;
69912;SDS011;57198;52.082;5.108;2022-12-18T11:36:19;15.00;;;9.88;;
69912;SDS011;57198;52.082;5.108;2022-12-18T11:38:31;17.73;;;12.85;;
69912;SDS011;57198;52.082;5.108;2022-12-18T11:43:31;12.87;;;9.47;;
69912;SDS011;57198;52.082;5.108;2022-12-18T11:46:06;19.13;;;11.35;;
69912;SDS011;57198;52.082;5.108;2022-12-18T11:48:38;18.80;;;12.77;;
69912;SDS011;57198;52.082;5.108;2022-12-18T11:51:11;14.18;;;11.05;;
69912;SDS011;57198;52.082;5.108;2022-12-18T11:53:44;15.60;;;10.57;;
69912;SDS011;57198;52.082;5.108;2022-12-18T11:58:50;18.15;;;12.40;;
69912;SDS011;57198;52.082;5.108;2022-12-18T12:07:17;15.65;;;11.38;;
69912;SDS011;57198;52.082;5.108;2022-12-18T12:15:12;11.88;;;8.02;;
69912;SDS011;57198;52.082;5.108;2022-12-18T12:17:42;15.65;;;9.65;;
69912;SDS011;57198;52.082;5.108;2022-12-18T12:20:22;15.40;;;10.95;;
69912;SDS011;57198;52.082;5.108;2022-12-18T12:22:54;15.50;;;10.63;;
69912;SDS011;57198;52.082;5.108;2022-12-18T12:25:38;19.15;;;14.02;;
69912;SDS011;57198;52.082;5.108;2022-12-18T12:33:49;17.65;;;12.60;;
69912;SDS011;57198;52.082;5.108;2022-12-18T12:38:54;19.67;;;13.23;;
69912;SDS011;57198;52.082;5.108;2022-12-18T12:41:23;21.33;;;12.60;;
69912;SDS011;57198;52.082;5.108;2022-12-18T12:44:13;19.13;;;13.13;;
69912;SDS011;57198;52.082;5.108;2022-12-18T12:46:42;20.65;;;13.65;;
69912;SDS011;57198;52.082;5.108;2022-12-18T12:49:18;18.17;;;12.77;;
69912;SDS011;57198;52.082;5.108;2022-12-18T12:52:05;16.10;;;11.32;;
69912;SDS011;57198;52.082;5.108;2022-12-18T12:54:33;21.65;;;12.18;;
69912;SDS011;57198;52.082;5.108;2022-12-18T13:02:23;22.87;;;12.17;;
69912;SDS011;57198;52.082;5.108;2022-12-18T13:04:57;18.02;;;11.25;;
69912;SDS011;57198;52.082;5.108;2022-12-18T13:12:56;18.67;;;13.60;;
69912;SDS011;57198;52.082;5.108;2022-12-18T13:15:27;17.07;;;12.33;;
69912;SDS011;57198;52.082;5.108;2022-12-18T13:20:41;15.85;;;9.85;;
69912;SDS011;57198;52.082;5.108;2022-12-18T13:23:20;17.85;;;10.90;;
69912;SDS011;57198;52.082;5.108;2022-12-18T13:30:48;20.00;;;12.18;;
69912;SDS011;57198;52.082;5.108;2022-12-18T13:35:58;16.38;;;10.27;;
69912;SDS011;57198;52.082;5.108;2022-12-18T13:40:58;16.93;;;11.63;;
69912;SDS011;57198;52.082;5.108;2022-12-18T13:43:27;18.20;;;12.00;;
69912;SDS011;57198;52.082;5.108;2022-12-18T13:48:26;16.10;;;10.95;;
69912;SDS011;57198;52.082;5.108;2022-12-18T13:51:28;19.25;;;12.77;;
69912;SDS011;57198;52.082;5.108;2022-12-18T13:53:50;18.97;;;11.17;;
69912;SDS011;57198;52.082;5.108;2022-12-18T13:56:17;13.10;;;10.80;;
69912;SDS011;57198;52.082;5.108;2022-12-18T13:58:46;17.08;;;12.38;;
69912;SDS011;57198;52.082;5.108;2022-12-18T14:01:22;17.25;;;10.55;;
69912;SDS011;57198;52.082;5.108;2022-12-18T14:03:50;18.35;;;13.98;;
69912;SDS011;57198;52.082;5.108;2022-12-18T14:06:18;17.97;;;11.97;;
69912;SDS011;57198;52.082;5.108;2022-12-18T14:08:45;14.25;;;10.60;;
69912;SDS011;57198;52.082;5.108;2022-12-18T14:11:18;17.45;;;11.82;;
69912;SDS011;57198;52.082;5.108;2022-12-18T14:13:48;14.27;;;10.20;;
69912;SDS011;57198;52.082;5.108;2022-12-18T14:16:16;16.08;;;12.05;;
69912;SDS011;57198;52.082;5.108;2022-12-18T14:21:19;15.50;;;11.00;;
69912;SDS011;57198;52.082;5.108;2022-12-18T14:23:47;18.20;;;10.40;;
69912;SDS011;57198;52.082;5.108;2022-12-18T14:26:28;18.52;;;11.52;;
69912;SDS011;57198;52.082;5.108;2022-12-18T14:28:57;16.77;;;11.02;;
69912;SDS011;57198;52.082;5.108;2022-12-18T14:31:25;16.00;;;12.33;;
69912;SDS011;57198;52.082;5.108;2022-12-18T14:33:53;16.70;;;11.38;;
69912;SDS011;57198;52.082;5.108;2022-12-18T14:36:22;18.70;;;11.93;;
69912;SDS011;57198;52.082;5.108;2022-12-18T14:38:50;18.60;;;10.43;;
69912;SDS011;57198;52.082;5.108;2022-12-18T14:41:20;17.60;;;11.35;;
69912;SDS011;57198;52.082;5.108;2022-12-18T14:43:48;17.53;;;11.83;;
69912;SDS011;57198;52.082;5.108;2022-12-18T14:49:25;15.15;;;11.52;;
69912;SDS011;57198;52.082;5.108;2022-12-18T14:51:54;20.10;;;12.50;;
69912;SDS011;57198;52.082;5.108;2022-12-18T14:54:23;22.23;;;12.80;;
69912;SDS011;57198;52.082;5.108;2022-12-18T14:56:51;17.10;;;12.67;;
69912;SDS011;57198;52.082;5.108;2022-12-18T14:59:23;22.30;;;11.90;;
69912;SDS011;57198;52.082;5.108;2022-12-18T15:01:59;17.73;;;11.57;;
69912;SDS011;57198;52.082;5.108;2022-12-18T15:09:39;19.87;;;13.47;;
69912;SDS011;57198;52.082;5.108;2022-12-18T15:12:24;16.38;;;11.25;;
69912;SDS011;57198;52.082;5.108;2022-12-18T15:14:52;19.50;;;13.85;;
69912;SDS011;57198;52.082;5.108;2022-12-18T15:17:21;19.50;;;13.05;;
69912;SDS011;57198;52.082;5.108;2022-12-18T15:19:53;19.38;;;12.88;;
69912;SDS011;57198;52.082;5.108;2022-12-18T15:24:52;18.95;;;12.50;;
69912;SDS011;57198;52.082;5.108;2022-12-18T15:27:25;21.02;;;13.85;;
69912;SDS011;57198;52.082;5.108;2022-12-18T15:30:03;19.50;;;13.32;;
69912;SDS011;57198;52.082;5.108;2022-12-18T15:32:43;21.42;;;12.98;;
69912;SDS011;57198;52.082;5.108;2022-12-18T15:37:38;14.27;;;10.75;;
69912;SDS011;57198;52.082;5.108;2022-12-18T15:40:06;22.25;;;15.30;;
69912;SDS011;57198;52.082;5.108;2022-12-18T15:42:34;22.98;;;13.70;;
69912;SDS011;57198;52.082;5.108;2022-12-18T15:45:20;19.02;;;13.25;;
69912;SDS011;57198;52.082;5.108;2022-12-18T15:47:49;22.17;;;12.97;;
69912;SDS011;57198;52.082;5.108;2022-12-18T15:50:16;23.73;;;15.93;;
69912;SDS011;57198;52.082;5.108;2022-12-18T15:52:45;16.77;;;12.00;;
69912;SDS011;57198;52.082;5.108;2022-12-18T15:55:13;17.10;;;11.57;;
69912;SDS011;57198;52.082;5.108;2022-12-18T15:58:01;15.85;;;11.38;;
69912;SDS011;57198;52.082;5.108;2022-12-18T16:00:28;16.93;;;11.07;;
69912;SDS011;57198;52.082;5.108;2022-12-18T16:02:55;24.70;;;15.05;;
69912;SDS011;57198;52.082;5.108;2022-12-18T16:05:23;20.98;;;12.75;;
69912;SDS011;57198;52.082;5.108;2022-12-18T16:07:50;20.13;;;15.02;;
69912;SDS011;57198;52.082;5.108;2022-12-18T16:10:18;20.45;;;13.48;;
69912;SDS011;57198;52.082;5.108;2022-12-18T16:12:45;15.97;;;12.43;;
69912;SDS011;57198;52.082;5.108;2022-12-18T16:15:14;15.57;;;11.00;;
69912;SDS011;57198;52.082;5.108;2022-12-18T16:17:49;14.70;;;12.35;;
69912;SDS011;57198;52.082;5.108;2022-12-18T16:20:19;17.73;;;12.73;;
69912;SDS011;57198;52.082;5.108;2022-12-18T16:22:47;19.17;;;12.13;;
69912;SDS011;57198;52.082;5.108;2022-12-18T16:27:42;14.23;;;10.45;;
69912;SDS011;57198;52.082;5.108;2022-12-18T16:30:18;19.05;;;12.48;;
69912;SDS011;57198;52.082;5.108;2022-12-18T16:32:45;12.60;;;10.23;;